createdAt,value
2019-01-19T00:00:06.420Z,3.00
2019-01-19T00:03:38.298Z,3.20
2019-01-19T00:07:04.820Z,2.90
2019-01-19T00:10:47.404Z,2.70
2019-01-19T00:14:23.397Z,3.10
2019-01-19T00:17:56.310Z,2.80
2019-01-19T00:21:34.307Z,2.80
2019-01-19T00:24:59.714Z,2.95
2019-01-19T00:32:05.862Z,2.67
2019-01-19T00:35:43.406Z,2.83
2019-01-19T00:39:20.842Z,2.70
2019-01-19T00:42:45.790Z,2.77
2019-01-19T00:49:21.793Z,2.83
2019-01-19T00:56:45.380Z,3.20
2019-01-19T00:59:31.732Z,2.85
2019-01-19T01:10:04.393Z,2.77
2019-01-19T01:14:04.049Z,2.98
2019-01-19T01:17:40.020Z,3.22
2019-01-19T01:21:13.320Z,3.05
2019-01-19T01:24:48.313Z,3.10
2019-01-19T01:27:43.045Z,3.00
2019-01-19T01:31:06.749Z,3.10
2019-01-19T01:38:08.788Z,3.67
2019-01-19T01:44:47.427Z,3.17
2019-01-19T01:48:39.780Z,3.02
2019-01-19T01:55:09.722Z,2.98
2019-01-19T01:58:33.737Z,3.00
2019-01-19T02:07:34.685Z,2.87
2019-01-19T02:11:30.320Z,3.10
2019-01-19T02:14:46.748Z,2.90
2019-01-19T02:22:21.323Z,3.20
2019-01-19T02:26:33.007Z,3.22
2019-01-19T02:30:15.319Z,3.42
2019-01-19T02:33:30.597Z,3.70
2019-01-19T02:36:38.489Z,3.12
2019-01-19T02:40:00.908Z,3.37
2019-01-19T02:43:37.379Z,3.50
2019-01-19T02:47:12.749Z,3.47
2019-01-19T02:53:53.804Z,3.25
2019-01-19T02:57:47.766Z,3.10
2019-01-19T03:01:22.305Z,3.63
2019-01-19T03:04:51.883Z,3.20
2019-01-19T03:08:43.783Z,4.08
2019-01-19T03:15:43.736Z,3.67
2019-01-19T03:22:40.751Z,3.80
2019-01-19T03:33:22.780Z,3.87
2019-01-19T03:40:29.797Z,3.37
2019-01-19T03:48:09.779Z,3.47
2019-01-19T03:52:11.062Z,3.42
2019-01-19T03:56:03.430Z,3.40
2019-01-19T03:59:36.818Z,3.15
2019-01-19T04:03:13.437Z,3.30
2019-01-19T04:06:53.765Z,4.10
2019-01-19T04:14:15.755Z,3.12
2019-01-19T04:17:57.409Z,3.17
2019-01-19T04:21:49.065Z,3.70
2019-01-19T04:25:05.278Z,3.55
2019-01-19T04:27:36.831Z,3.85
2019-01-19T04:30:12.719Z,3.80
2019-01-19T04:35:15.039Z,3.50
2019-01-19T04:37:46.770Z,3.80
2019-01-19T04:40:18.373Z,3.80
2019-01-19T04:42:50.313Z,3.98
2019-01-19T04:45:22.840Z,3.85
2019-01-19T04:47:54.789Z,3.80
2019-01-19T04:50:26.769Z,3.60
2019-01-19T04:55:29.318Z,3.90
2019-01-19T04:58:00.877Z,3.42
2019-01-19T05:00:32.406Z,3.58
2019-01-19T05:03:04.065Z,3.60
2019-01-19T05:05:35.815Z,4.20
2019-01-19T05:08:07.335Z,3.77
2019-01-19T05:10:39.590Z,3.77
2019-01-19T05:13:11.710Z,3.80
2019-01-19T05:18:14.279Z,3.77
2019-01-19T05:20:45.868Z,3.95
2019-01-19T05:23:17.613Z,3.98
2019-01-19T05:25:48.680Z,4.00
2019-01-19T05:28:20.355Z,3.85
2019-01-19T05:30:51.917Z,4.10
2019-01-19T05:33:24.033Z,4.35
2019-01-19T05:35:56.322Z,4.22
2019-01-19T05:38:27.988Z,4.03
2019-01-19T05:40:59.874Z,4.05
2019-01-19T05:43:31.392Z,3.90
2019-01-19T05:46:03.073Z,3.80
2019-01-19T05:48:34.754Z,3.92
2019-01-19T05:53:37.305Z,4.08
2019-01-19T05:56:09.286Z,3.83
2019-01-19T05:58:40.999Z,4.58
2019-01-19T06:01:12.894Z,4.78
2019-01-19T06:03:44.911Z,4.47
2019-01-19T06:06:16.864Z,4.97
2019-01-19T06:08:48.776Z,5.67
2019-01-19T06:13:51.409Z,5.80
2019-01-19T06:16:23.279Z,5.95
2019-01-19T06:18:55.389Z,5.37
2019-01-19T06:21:31.315Z,5.40
2019-01-19T06:24:04.805Z,5.90
2019-01-19T06:26:36.390Z,6.15
2019-01-19T06:29:08.311Z,5.90
2019-01-19T06:31:39.917Z,5.75
2019-01-19T06:34:11.654Z,5.72
2019-01-19T06:36:43.438Z,6.00
2019-01-19T06:39:15.313Z,5.60
2019-01-19T06:41:47.320Z,5.83
2019-01-19T06:44:18.867Z,5.97
2019-01-19T06:46:51.778Z,5.70
2019-01-19T06:51:54.379Z,6.10
2019-01-19T06:54:28.065Z,5.53
2019-01-19T06:56:59.748Z,6.00
2019-01-19T06:59:31.621Z,5.30
2019-01-19T07:02:03.624Z,5.97
2019-01-19T07:04:35.618Z,5.55
2019-01-19T07:07:07.378Z,5.53
2019-01-19T07:09:39.006Z,4.92
2019-01-19T07:12:10.701Z,4.67
2019-01-19T07:17:13.314Z,5.03
2019-01-19T07:19:45.308Z,4.65
2019-01-19T07:22:17.654Z,4.58
2019-01-19T07:24:49.441Z,4.20
2019-01-19T07:27:21.309Z,4.47
2019-01-19T07:29:52.907Z,4.87
2019-01-19T07:32:24.736Z,4.10
2019-01-19T07:37:27.391Z,4.15
2019-01-19T07:39:59.163Z,4.00
2019-01-19T07:42:30.810Z,3.92
2019-01-19T07:47:33.852Z,3.80
2019-01-19T07:50:05.775Z,4.37
2019-01-19T07:52:37.849Z,3.72
2019-01-19T07:55:12.274Z,4.80
2019-01-19T07:57:43.942Z,4.67
2019-01-19T08:00:21.766Z,4.37
2019-01-19T08:02:53.790Z,4.30
2019-01-19T08:07:56.386Z,4.08
2019-01-19T08:10:28.073Z,4.08
2019-01-19T08:12:59.785Z,4.10
2019-01-19T08:18:02.314Z,4.47
2019-01-19T08:20:34.301Z,4.53
2019-01-19T08:23:05.929Z,4.17
2019-01-19T08:25:37.787Z,3.95
2019-01-19T08:28:09.485Z,3.75
2019-01-19T08:30:41.069Z,4.10
2019-01-19T08:33:12.794Z,4.20
2019-01-19T08:38:15.891Z,4.20
2019-01-19T08:40:47.882Z,3.67
2019-01-19T08:43:37.308Z,3.83
2019-01-19T08:46:09.307Z,3.90
2019-01-19T08:48:41.369Z,4.30
2019-01-19T08:51:14.270Z,3.62
2019-01-19T08:53:46.298Z,3.62
2019-01-19T08:56:18.375Z,3.85
2019-01-19T08:58:50.267Z,3.60
2019-01-19T09:01:22.065Z,4.10
2019-01-19T09:03:53.711Z,4.60
2019-01-19T09:06:25.376Z,3.90
2019-01-19T09:08:57.049Z,4.35
2019-01-19T09:11:29.066Z,4.30
2019-01-19T09:14:00.790Z,4.87
2019-01-19T09:19:03.386Z,4.65
2019-01-19T09:21:35.310Z,4.47
2019-01-19T09:24:11.310Z,4.20
2019-01-19T09:26:42.853Z,4.17
2019-01-19T09:29:14.612Z,4.35
2019-01-19T09:31:46.359Z,4.20
2019-01-19T09:34:18.071Z,4.25
2019-01-19T09:36:49.749Z,4.10
2019-01-19T09:41:52.305Z,4.40
2019-01-19T09:44:23.818Z,3.87
2019-01-19T09:46:55.712Z,4.40
2019-01-19T09:51:58.055Z,4.12
2019-01-19T09:54:29.749Z,4.12
2019-01-19T09:59:32.361Z,4.42
2019-01-19T10:02:04.078Z,4.58
2019-01-19T10:04:36.354Z,4.72
2019-01-19T10:07:08.071Z,4.33
2019-01-19T10:09:40.307Z,4.37
2019-01-19T10:12:11.916Z,4.90
2019-01-19T10:14:43.658Z,4.55
2019-01-19T10:17:16.062Z,4.37
2019-01-19T10:19:47.890Z,4.00
2019-01-19T10:22:19.618Z,4.30
2019-01-19T10:24:51.395Z,3.72
2019-01-19T10:27:23.302Z,4.10
2019-01-19T10:29:55.320Z,3.98
2019-01-19T10:32:26.864Z,4.37
2019-01-19T10:34:58.636Z,4.33
2019-01-19T10:37:30.332Z,3.87
2019-01-19T10:40:02.104Z,4.37
2019-01-19T10:42:33.726Z,4.10
2019-01-19T10:50:11.868Z,4.35
2019-01-19T10:52:43.900Z,4.08
2019-01-19T10:55:18.911Z,4.08
2019-01-19T10:57:50.851Z,4.15
2019-01-19T11:00:30.419Z,3.98
2019-01-19T11:03:02.835Z,4.05
2019-01-19T11:05:34.875Z,3.95
2019-01-19T11:08:08.494Z,3.85
2019-01-19T11:10:40.730Z,4.00
2019-01-19T11:15:43.871Z,3.20
2019-01-19T11:18:16.280Z,4.08
2019-01-19T11:20:48.408Z,3.72
2019-01-19T11:23:20.833Z,3.45
2019-01-19T11:25:52.834Z,3.62
2019-01-19T11:28:24.905Z,3.67
2019-01-19T11:30:57.286Z,3.65
2019-01-19T11:33:29.810Z,3.58
2019-01-19T11:36:01.823Z,4.00
2019-01-19T11:38:33.843Z,3.87
2019-01-19T11:41:05.897Z,3.83
2019-01-19T11:43:37.879Z,3.27
2019-01-19T11:46:09.845Z,3.70
2019-01-19T11:48:41.839Z,3.15
2019-01-19T11:51:13.882Z,3.33
2019-01-19T11:53:45.833Z,3.08
2019-01-19T11:56:17.895Z,3.42
2019-01-19T11:58:49.822Z,3.08
2019-01-19T12:01:21.826Z,3.20
2019-01-19T12:03:53.819Z,3.20
2019-01-19T12:06:25.885Z,3.30
2019-01-19T12:08:57.854Z,3.15
2019-01-19T12:11:29.850Z,3.30
2019-01-19T12:14:02.392Z,3.45
2019-01-19T12:16:34.865Z,3.45
2019-01-19T12:19:06.852Z,3.42
2019-01-19T12:21:38.842Z,3.22
2019-01-19T12:24:10.845Z,3.40
2019-01-19T12:26:43.319Z,3.27
2019-01-19T12:29:15.849Z,3.15
2019-01-19T12:31:48.564Z,3.30
2019-01-19T12:34:20.824Z,3.50
2019-01-19T12:36:52.864Z,3.67
2019-01-19T12:39:25.349Z,3.37
2019-01-19T12:41:57.827Z,3.02
2019-01-19T12:44:29.831Z,3.17
2019-01-19T12:47:01.812Z,3.50
2019-01-19T12:49:33.929Z,3.00
2019-01-19T12:52:05.909Z,3.40
2019-01-19T12:54:37.814Z,3.77
2019-01-19T12:57:09.834Z,3.00
2019-01-19T12:59:41.774Z,3.25
2019-01-19T13:02:13.840Z,3.42
2019-01-19T13:04:45.854Z,3.27
2019-01-19T13:07:19.390Z,3.50
2019-01-19T13:09:59.432Z,3.02
2019-01-19T13:13:06.319Z,3.02
2019-01-19T13:16:46.421Z,8.73
2019-01-19T13:20:06.855Z,6.62
2019-01-19T13:24:06.100Z,7.62
2019-01-19T13:27:52.115Z,6.10
2019-01-19T13:31:45.389Z,5.55
2019-01-19T13:35:42.107Z,5.70
2019-01-19T13:39:36.453Z,5.53
2019-01-19T13:43:32.351Z,6.22
2019-01-19T13:47:27.846Z,6.03
2019-01-19T13:50:56.490Z,5.62
2019-01-19T13:54:45.505Z,5.30
2019-01-19T13:58:32.896Z,5.10
2019-01-19T14:02:44.024Z,6.10
2019-01-19T14:06:11.548Z,6.55
2019-01-19T14:10:03.676Z,6.60
2019-01-19T14:14:09.326Z,6.47
2019-01-19T14:17:29.963Z,7.15
2019-01-19T14:21:11.501Z,7.72
2019-01-19T14:25:04.798Z,7.22
2019-01-19T14:28:48.038Z,5.40
2019-01-19T14:32:33.918Z,7.62
2019-01-19T14:36:20.699Z,5.50
2019-01-19T14:40:26.444Z,5.80
2019-01-19T14:43:50.857Z,5.00
2019-01-19T14:47:16.822Z,6.33
2019-01-19T14:51:06.419Z,5.37
2019-01-19T14:54:52.833Z,5.85
2019-01-19T14:58:17.319Z,6.95
2019-01-19T15:02:19.436Z,8.73
2019-01-19T15:06:13.030Z,11.10
2019-01-19T15:09:46.352Z,13.40
2019-01-19T15:13:48.726Z,14.25
2019-01-19T15:17:23.147Z,16.90
2019-01-19T15:20:55.808Z,13.95
2019-01-19T15:24:32.309Z,15.75
2019-01-19T15:28:06.840Z,18.40
2019-01-19T15:31:50.555Z,20.85
2019-01-19T15:35:35.328Z,16.90
2019-01-19T15:39:10.912Z,21.27
2019-01-19T15:42:36.800Z,22.93
2019-01-19T15:46:09.908Z,23.00
2019-01-19T15:49:41.931Z,20.00
2019-01-19T15:53:11.336Z,21.33
2019-01-19T15:57:07.471Z,18.42
2019-01-19T16:01:07.085Z,22.02
2019-01-19T16:04:30.860Z,21.05
2019-01-19T16:08:04.842Z,17.87
2019-01-19T16:11:26.865Z,21.12
2019-01-19T16:14:56.057Z,20.30
2019-01-19T16:18:30.506Z,21.45
2019-01-19T16:22:05.321Z,19.57
2019-01-19T16:26:08.885Z,18.57
2019-01-19T16:29:47.276Z,18.35
2019-01-19T16:33:32.842Z,18.90
2019-01-19T16:37:10.702Z,18.85
2019-01-19T16:48:12.324Z,20.57
2019-01-19T16:52:20.929Z,19.15
2019-01-19T16:55:58.339Z,16.37
2019-01-19T16:59:44.673Z,16.60
2019-01-19T17:03:51.056Z,16.77
2019-01-19T17:07:59.040Z,16.90
2019-01-19T17:11:34.338Z,16.62
2019-01-19T17:14:58.839Z,18.12
2019-01-19T17:18:12.511Z,15.30
2019-01-19T17:22:01.462Z,17.07
2019-01-19T17:25:42.838Z,16.62
2019-01-19T17:29:18.326Z,14.18
2019-01-19T17:32:37.067Z,13.75
2019-01-19T17:36:38.872Z,12.18
2019-01-19T17:40:17.941Z,12.55
2019-01-19T17:43:35.335Z,11.28
2019-01-19T17:47:28.327Z,11.68
2019-01-19T17:51:30.870Z,13.95
2019-01-19T17:55:30.796Z,13.30
2019-01-19T17:58:59.292Z,12.82
2019-01-19T18:02:48.076Z,13.72
2019-01-19T18:06:20.099Z,14.00
2019-01-19T18:09:49.914Z,13.50
2019-01-19T18:13:54.055Z,14.00
2019-01-19T18:18:04.611Z,13.38
2019-01-19T18:21:20.942Z,13.43
2019-01-19T18:25:18.847Z,14.20
2019-01-19T18:28:56.739Z,13.38
2019-01-19T18:43:11.840Z,14.45
2019-01-19T18:47:33.443Z,14.63
2019-01-19T18:51:18.879Z,13.55
2019-01-19T18:55:15.364Z,11.63
2019-01-19T18:59:24.861Z,12.82
2019-01-19T19:03:12.537Z,13.05
2019-01-19T19:07:11.099Z,12.75
2019-01-19T19:10:59.988Z,12.43
2019-01-19T19:14:21.281Z,11.75
2019-01-19T19:18:15.876Z,12.30
2019-01-19T19:21:41.922Z,12.60
2019-01-19T19:25:19.866Z,13.08
2019-01-19T19:29:20.860Z,12.10
2019-01-19T19:32:44.477Z,12.18
2019-01-19T19:36:10.911Z,12.82
2019-01-19T19:39:42.322Z,13.45
2019-01-19T19:43:37.474Z,13.88
2019-01-19T19:47:20.708Z,12.80
2019-01-19T19:56:00.892Z,12.60
2019-01-19T19:58:32.892Z,12.82
2019-01-19T20:01:04.879Z,12.25
2019-01-19T20:03:37.099Z,13.00
2019-01-19T20:06:09.624Z,12.73
2019-01-19T20:08:41.849Z,14.38
2019-01-19T20:11:14.015Z,13.95
2019-01-19T20:13:45.987Z,13.68
2019-01-19T20:16:17.864Z,12.98
2019-01-19T20:18:49.881Z,12.85
2019-01-19T20:21:22.321Z,12.43
2019-01-19T20:23:54.834Z,12.15
2019-01-19T20:26:26.866Z,12.37
2019-01-19T20:28:59.324Z,12.63
2019-01-19T20:31:31.859Z,12.68
2019-01-19T20:34:03.914Z,12.53
2019-01-19T20:36:35.864Z,12.58
2019-01-19T20:39:11.316Z,12.20
2019-01-19T20:41:43.582Z,12.95
2019-01-19T20:44:15.913Z,12.18
2019-01-19T20:46:47.887Z,12.25
2019-01-19T20:49:22.435Z,12.33
2019-01-19T20:51:53.850Z,12.37
2019-01-19T20:54:27.015Z,12.47
2019-01-19T20:56:58.919Z,13.18
2019-01-19T20:59:30.816Z,13.93
2019-01-19T21:02:02.931Z,13.48
2019-01-19T21:04:34.813Z,12.63
2019-01-19T21:07:06.851Z,12.37
2019-01-19T21:09:38.836Z,13.08
2019-01-19T21:12:11.324Z,12.05
2019-01-19T21:14:43.928Z,12.82
2019-01-19T21:17:15.894Z,12.90
2019-01-19T21:19:48.427Z,12.20
2019-01-19T21:22:20.860Z,12.55
2019-01-19T21:24:53.545Z,14.95
2019-01-19T21:27:25.955Z,13.28
2019-01-19T21:29:58.821Z,14.03
2019-01-19T21:32:31.020Z,12.78
2019-01-19T21:35:03.864Z,13.65
2019-01-19T21:37:35.890Z,12.00
2019-01-19T21:40:11.308Z,11.57
2019-01-19T21:42:44.044Z,12.35
2019-01-19T21:45:20.400Z,11.60
2019-01-19T21:47:52.915Z,11.70
2019-01-19T21:50:24.852Z,11.65
2019-01-19T21:52:56.840Z,11.53
2019-01-19T21:55:28.842Z,11.55
2019-01-19T21:58:00.857Z,12.05
2019-01-19T22:00:32.841Z,11.33
2019-01-19T22:03:04.827Z,11.00
2019-01-19T22:05:36.845Z,10.80
2019-01-19T22:08:09.000Z,10.95
2019-01-19T22:10:46.310Z,11.20
2019-01-19T22:13:16.498Z,10.90
2019-01-19T22:15:49.363Z,11.05
2019-01-19T22:18:21.856Z,12.40
2019-01-19T22:20:54.316Z,11.15
2019-01-19T22:23:26.974Z,10.98
2019-01-19T22:25:59.826Z,11.03
2019-01-19T22:28:31.817Z,10.78
2019-01-19T22:31:03.984Z,10.65
2019-01-19T22:33:36.736Z,11.25
2019-01-19T22:38:40.825Z,10.60
2019-01-19T22:41:12.900Z,9.95
2019-01-19T22:43:44.851Z,9.80
2019-01-19T22:46:17.094Z,10.58
2019-01-19T22:48:49.870Z,10.50
2019-01-19T22:51:22.842Z,11.45
2019-01-19T22:53:55.330Z,11.03
2019-01-19T22:56:27.559Z,11.25
2019-01-19T22:58:59.755Z,10.18
2019-01-19T23:02:10.668Z,10.50
2019-01-19T23:04:43.319Z,10.28
2019-01-19T23:07:15.628Z,9.70
2019-01-19T23:09:47.900Z,10.08
2019-01-19T23:12:19.824Z,9.53
2019-01-19T23:14:52.291Z,9.48
2019-01-19T23:17:24.827Z,10.40
2019-01-19T23:19:57.068Z,9.53
2019-01-19T23:22:29.317Z,10.03
2019-01-19T23:25:02.100Z,9.78
2019-01-19T23:27:34.314Z,10.32
2019-01-19T23:30:08.282Z,9.28
2019-01-19T23:32:40.339Z,9.93
2019-01-19T23:35:12.482Z,10.30
2019-01-19T23:37:44.504Z,10.58
2019-01-19T23:40:16.844Z,10.30
2019-01-19T23:42:48.870Z,10.38
2019-01-19T23:45:20.841Z,10.15
2019-01-19T23:47:52.847Z,10.55
2019-01-19T23:50:25.112Z,10.08
2019-01-19T23:52:57.328Z,9.98
2019-01-19T23:55:29.854Z,10.60
2019-01-19T23:58:01.905Z,10.08
